sensor_id;sensor_type;location;lat;lon;timestamp;temperature;humidity
23769;DHT22;12064;50.890;5.424;2024-02-15T00:07:01;16.30;99.90
23769;DHT22;12064;50.890;5.424;2024-02-15T00:15:52;16.30;99.90
23769;DHT22;12064;50.890;5.424;2024-02-15T00:24:43;16.30;99.90
23769;DHT22;12064;50.890;5.424;2024-02-15T00:33:36;16.30;99.90
23769;DHT22;12064;50.890;5.424;2024-02-15T00:42:27;16.30;99.90
23769;DHT22;12064;50.890;5.424;2024-02-15T00:51:17;16.30;99.90
23769;DHT22;12064;50.890;5.424;2024-02-15T01:00:08;16.30;99.90
23769;DHT22;12064;50.890;5.424;2024-02-15T01:09:00;16.30;99.90
23769;DHT22;12064;50.890;5.424;2024-02-15T01:17:52;16.30;99.90
23769;DHT22;12064;50.890;5.424;2024-02-15T01:26:43;16.30;99.90
23769;DHT22;12064;50.890;5.424;2024-02-15T01:35:33;16.30;99.90
23769;DHT22;12064;50.890;5.424;2024-02-15T01:44:25;16.30;99.90
23769;DHT22;12064;50.890;5.424;2024-02-15T01:53:16;16.30;99.90
23769;DHT22;12064;50.890;5.424;2024-02-15T02:02:08;16.30;99.90
23769;DHT22;12064;50.890;5.424;2024-02-15T02:11:02;16.30;99.90
23769;DHT22;12064;50.890;5.424;2024-02-15T02:19:54;16.30;99.90
23769;DHT22;12064;50.890;5.424;2024-02-15T02:28:45;16.30;99.90
23769;DHT22;12064;50.890;5.424;2024-02-15T02:37:35;16.30;99.90
23769;DHT22;12064;50.890;5.424;2024-02-15T02:46:27;16.30;99.90
23769;DHT22;12064;50.890;5.424;2024-02-15T02:55:18;16.30;99.90
23769;DHT22;12064;50.890;5.424;2024-02-15T03:04:08;16.30;99.90
23769;DHT22;12064;50.890;5.424;2024-02-15T03:12:59;16.30;99.90
23769;DHT22;12064;50.890;5.424;2024-02-15T03:21:50;16.30;99.90
23769;DHT22;12064;50.890;5.424;2024-02-15T03:30:42;16.30;99.90
23769;DHT22;12064;50.890;5.424;2024-02-15T03:39:33;16.30;99.90
23769;DHT22;12064;50.890;5.424;2024-02-15T03:48:24;16.30;99.90
23769;DHT22;12064;50.890;5.424;2024-02-15T03:57:14;16.30;99.90
23769;DHT22;12064;50.890;5.424;2024-02-15T04:06:07;16.30;99.90
23769;DHT22;12064;50.890;5.424;2024-02-15T04:14:59;16.30;99.90
23769;DHT22;12064;50.890;5.424;2024-02-15T04:24:03;16.30;99.90
23769;DHT22;12064;50.890;5.424;2024-02-15T04:32:55;16.30;99.90
23769;DHT22;12064;50.890;5.424;2024-02-15T04:41:46;16.30;99.90
23769;DHT22;12064;50.890;5.424;2024-02-15T04:50:37;16.30;99.90
23769;DHT22;12064;50.890;5.424;2024-02-15T04:59:27;16.30;99.90
23769;DHT22;12064;50.890;5.424;2024-02-15T05:08:19;16.30;99.90
23769;DHT22;12064;50.890;5.424;2024-02-15T05:17:10;16.30;99.90
23769;DHT22;12064;50.890;5.424;2024-02-15T05:26:03;16.40;99.90
23769;DHT22;12064;50.890;5.424;2024-02-15T05:34:56;16.30;99.90
23769;DHT22;12064;50.890;5.424;2024-02-15T05:43:47;16.30;99.90
23769;DHT22;12064;50.890;5.424;2024-02-15T05:52:43;16.30;99.90
23769;DHT22;12064;50.890;5.424;2024-02-15T06:01:34;16.30;99.90
23769;DHT22;12064;50.890;5.424;2024-02-15T06:10:25;16.30;99.90
23769;DHT22;12064;50.890;5.424;2024-02-15T06:19:16;16.30;99.90
23769;DHT22;12064;50.890;5.424;2024-02-15T06:28:07;16.30;99.90
23769;DHT22;12064;50.890;5.424;2024-02-15T06:37:03;16.30;99.90
23769;DHT22;12064;50.890;5.424;2024-02-15T06:46:13;16.30;99.90
23769;DHT22;12064;50.890;5.424;2024-02-15T06:55:07;16.30;99.90
23769;DHT22;12064;50.890;5.424;2024-02-15T07:03:58;16.30;99.90
23769;DHT22;12064;50.890;5.424;2024-02-15T07:12:49;16.30;99.90
23769;DHT22;12064;50.890;5.424;2024-02-15T07:21:40;16.30;99.90
23769;DHT22;12064;50.890;5.424;2024-02-15T07:30:32;16.30;99.90
23769;DHT22;12064;50.890;5.424;2024-02-15T07:39:22;16.30;99.90
23769;DHT22;12064;50.890;5.424;2024-02-15T07:48:18;16.30;99.90
23769;DHT22;12064;50.890;5.424;2024-02-15T07:57:09;16.30;99.90
23769;DHT22;12064;50.890;5.424;2024-02-15T08:06:04;16.40;99.90
23769;DHT22;12064;50.890;5.424;2024-02-15T08:14:56;16.30;99.90
23769;DHT22;12064;50.890;5.424;2024-02-15T08:23:48;16.40;99.90
23769;DHT22;12064;50.890;5.424;2024-02-15T08:32:40;16.40;99.90
23769;DHT22;12064;50.890;5.424;2024-02-15T08:41:32;16.40;99.90
23769;DHT22;12064;50.890;5.424;2024-02-15T08:50:22;16.40;99.90
23769;DHT22;12064;50.890;5.424;2024-02-15T08:59:14;16.40;99.90
23769;DHT22;12064;50.890;5.424;2024-02-15T09:08:07;16.40;99.90
23769;DHT22;12064;50.890;5.424;2024-02-15T09:16:59;16.40;99.90
23769;DHT22;12064;50.890;5.424;2024-02-15T09:25:50;16.40;99.90
23769;DHT22;12064;50.890;5.424;2024-02-15T09:34:43;16.50;99.90
23769;DHT22;12064;50.890;5.424;2024-02-15T09:43:34;16.50;99.90
23769;DHT22;12064;50.890;5.424;2024-02-15T09:52:25;16.50;99.90
23769;DHT22;12064;50.890;5.424;2024-02-15T10:01:20;16.60;99.90
23769;DHT22;12064;50.890;5.424;2024-02-15T10:10:23;16.70;99.90
23769;DHT22;12064;50.890;5.424;2024-02-15T10:19:15;16.70;99.90
23769;DHT22;12064;50.890;5.424;2024-02-15T10:28:08;16.80;99.90
23769;DHT22;12064;50.890;5.424;2024-02-15T10:37:15;16.80;99.90
23769;DHT22;12064;50.890;5.424;2024-02-15T10:46:09;16.90;99.90
23769;DHT22;12064;50.890;5.424;2024-02-15T10:55:04;16.90;99.90
23769;DHT22;12064;50.890;5.424;2024-02-15T11:04:05;16.90;99.90
23769;DHT22;12064;50.890;5.424;2024-02-15T11:12:57;16.90;99.90
23769;DHT22;12064;50.890;5.424;2024-02-15T11:21:56;17.00;99.90
23769;DHT22;12064;50.890;5.424;2024-02-15T11:30:48;17.00;99.90
23769;DHT22;12064;50.890;5.424;2024-02-15T11:39:41;17.00;99.90
23769;DHT22;12064;50.890;5.424;2024-02-15T11:48:36;17.10;99.90
23769;DHT22;12064;50.890;5.424;2024-02-15T11:57:29;17.10;99.90
23769;DHT22;12064;50.890;5.424;2024-02-15T12:06:28;17.10;99.90
23769;DHT22;12064;50.890;5.424;2024-02-15T12:15:38;17.20;99.90
23769;DHT22;12064;50.890;5.424;2024-02-15T12:25:01;17.20;99.90
23769;DHT22;12064;50.890;5.424;2024-02-15T12:34:04;17.20;99.90
23769;DHT22;12064;50.890;5.424;2024-02-15T12:42:58;17.20;99.90
23769;DHT22;12064;50.890;5.424;2024-02-15T12:51:52;17.30;99.90
23769;DHT22;12064;50.890;5.424;2024-02-15T13:00:43;17.30;99.90
23769;DHT22;12064;50.890;5.424;2024-02-15T13:09:34;17.30;99.90
23769;DHT22;12064;50.890;5.424;2024-02-15T13:18:24;17.40;99.90
23769;DHT22;12064;50.890;5.424;2024-02-15T13:27:16;17.30;99.80
23769;DHT22;12064;50.890;5.424;2024-02-15T13:36:07;17.40;99.70
23769;DHT22;12064;50.890;5.424;2024-02-15T13:45:01;17.40;99.70
23769;DHT22;12064;50.890;5.424;2024-02-15T13:53:52;17.40;99.60
23769;DHT22;12064;50.890;5.424;2024-02-15T14:02:43;17.50;99.50
23769;DHT22;12064;50.890;5.424;2024-02-15T14:11:33;17.50;99.50
23769;DHT22;12064;50.890;5.424;2024-02-15T14:20:24;17.60;99.40
23769;DHT22;12064;50.890;5.424;2024-02-15T14:29:15;17.60;99.40
23769;DHT22;12064;50.890;5.424;2024-02-15T14:38:08;17.60;99.40
23769;DHT22;12064;50.890;5.424;2024-02-15T14:47:01;17.60;99.40
23769;DHT22;12064;50.890;5.424;2024-02-15T14:55:53;17.60;99.40
23769;DHT22;12064;50.890;5.424;2024-02-15T15:04:43;17.60;99.50
23769;DHT22;12064;50.890;5.424;2024-02-15T15:13:53;17.70;99.70
23769;DHT22;12064;50.890;5.424;2024-02-15T15:22:43;17.70;99.90
23769;DHT22;12064;50.890;5.424;2024-02-15T15:31:34;17.70;99.90
23769;DHT22;12064;50.890;5.424;2024-02-15T15:40:25;17.70;99.90
23769;DHT22;12064;50.890;5.424;2024-02-15T15:49:16;17.70;99.90
23769;DHT22;12064;50.890;5.424;2024-02-15T15:58:07;17.80;99.90
23769;DHT22;12064;50.890;5.424;2024-02-15T16:06:58;17.80;99.80
23769;DHT22;12064;50.890;5.424;2024-02-15T16:15:52;17.80;99.70
23769;DHT22;12064;50.890;5.424;2024-02-15T16:24:44;17.80;99.50
23769;DHT22;12064;50.890;5.424;2024-02-15T16:33:34;17.80;99.40
23769;DHT22;12064;50.890;5.424;2024-02-15T16:42:25;17.80;99.40
23769;DHT22;12064;50.890;5.424;2024-02-15T16:51:18;17.90;99.40
23769;DHT22;12064;50.890;5.424;2024-02-15T17:00:13;17.90;99.40
23769;DHT22;12064;50.890;5.424;2024-02-15T17:09:08;17.80;99.40
23769;DHT22;12064;50.890;5.424;2024-02-15T17:17:58;17.80;99.40
23769;DHT22;12064;50.890;5.424;2024-02-15T17:26:49;17.80;99.40
23769;DHT22;12064;50.890;5.424;2024-02-15T17:35:40;17.80;99.40
23769;DHT22;12064;50.890;5.424;2024-02-15T17:44:31;17.70;99.50
23769;DHT22;12064;50.890;5.424;2024-02-15T17:53:24;17.70;99.50
23769;DHT22;12064;50.890;5.424;2024-02-15T18:02:15;17.70;99.60
23769;DHT22;12064;50.890;5.424;2024-02-15T18:11:05;17.70;99.60
23769;DHT22;12064;50.890;5.424;2024-02-15T18:19:59;17.60;99.70
23769;DHT22;12064;50.890;5.424;2024-02-15T18:28:49;17.60;99.80
23769;DHT22;12064;50.890;5.424;2024-02-15T18:37:41;17.60;99.80
23769;DHT22;12064;50.890;5.424;2024-02-15T18:46:35;17.60;99.80
23769;DHT22;12064;50.890;5.424;2024-02-15T18:55:26;17.60;99.80
23769;DHT22;12064;50.890;5.424;2024-02-15T19:04:18;17.50;99.80
23769;DHT22;12064;50.890;5.424;2024-02-15T19:13:09;17.50;99.90
23769;DHT22;12064;50.890;5.424;2024-02-15T19:22:00;17.50;99.90
23769;DHT22;12064;50.890;5.424;2024-02-15T19:30:53;17.50;99.90
23769;DHT22;12064;50.890;5.424;2024-02-15T19:39:44;17.50;99.90
23769;DHT22;12064;50.890;5.424;2024-02-15T19:48:42;17.50;99.90
23769;DHT22;12064;50.890;5.424;2024-02-15T19:57:33;17.40;99.90
23769;DHT22;12064;50.890;5.424;2024-02-15T20:06:23;17.40;99.90
23769;DHT22;12064;50.890;5.424;2024-02-15T20:15:14;17.40;99.90
23769;DHT22;12064;50.890;5.424;2024-02-15T20:24:06;17.40;99.90
23769;DHT22;12064;50.890;5.424;2024-02-15T20:32:58;17.40;99.90
23769;DHT22;12064;50.890;5.424;2024-02-15T20:41:52;17.40;99.90
23769;DHT22;12064;50.890;5.424;2024-02-15T20:50:43;17.40;99.90
23769;DHT22;12064;50.890;5.424;2024-02-15T20:59:33;17.30;99.90
23769;DHT22;12064;50.890;5.424;2024-02-15T21:08:26;17.30;99.90
23769;DHT22;12064;50.890;5.424;2024-02-15T21:17:18;17.30;99.90
23769;DHT22;12064;50.890;5.424;2024-02-15T21:26:09;17.30;99.90
23769;DHT22;12064;50.890;5.424;2024-02-15T21:35:01;17.30;99.90
23769;DHT22;12064;50.890;5.424;2024-02-15T21:43:52;17.20;99.90
23769;DHT22;12064;50.890;5.424;2024-02-15T21:52:43;17.30;99.90
23769;DHT22;12064;50.890;5.424;2024-02-15T22:01:38;17.20;99.90
23769;DHT22;12064;50.890;5.424;2024-02-15T22:10:28;17.20;99.90
23769;DHT22;12064;50.890;5.424;2024-02-15T22:19:19;17.20;99.90
23769;DHT22;12064;50.890;5.424;2024-02-15T22:28:10;17.20;99.90
23769;DHT22;12064;50.890;5.424;2024-02-15T22:37:00;17.20;99.90
23769;DHT22;12064;50.890;5.424;2024-02-15T22:45:51;17.20;99.90
23769;DHT22;12064;50.890;5.424;2024-02-15T22:54:42;17.20;99.90
23769;DHT22;12064;50.890;5.424;2024-02-15T23:03:40;17.20;99.90
23769;DHT22;12064;50.890;5.424;2024-02-15T23:12:30;17.20;99.90
23769;DHT22;12064;50.890;5.424;2024-02-15T23:21:21;17.10;99.90
23769;DHT22;12064;50.890;5.424;2024-02-15T23:30:15;17.10;99.90
23769;DHT22;12064;50.890;5.424;2024-02-15T23:39:05;17.10;99.90
23769;DHT22;12064;50.890;5.424;2024-02-15T23:48:15;17.10;99.90
23769;DHT22;12064;50.890;5.424;2024-02-15T23:57:05;17.10;99.90
